Time;durP1;ratioP1;P1;durP2;ratioP2;P2;SDS_P1;SDS_P2;PMS_P1;PMS_P2;Temp;Humidity;BMP_temperature;BMP_pressure;BME280_temperature;BME280_humidity;BME280_pressure;Samples;Min_cycle;Max_cycle;Signal;HPM_P1;HPM_P2
2023/07/14 00:01:33;;;;;;;6.22;2.10;;;;;;;;;;4991396;28;20032;-68
2023/07/14 00:03:59;;;;;;;4.57;1.60;;;;;;;;;;4991404;28;20058;-68
2023/07/14 00:06:25;;;;;;;7.50;1.98;;;;;;;;;;4973961;28;20064;-68
2023/07/14 00:08:51;;;;;;;8.10;2.35;;;;;;;;;;4990744;28;20539;-68
2023/07/14 00:11:21;;;;;;;3.10;1.65;;;;;;;;;;4991185;28;20121;-68
2023/07/14 00:13:48;;;;;;;4.07;1.95;;;;;;;;;;4991490;28;20022;-68
2023/07/14 00:16:19;;;;;;;3.15;1.95;;;;;;;;;;4991205;28;20034;-68
2023/07/14 00:18:46;;;;;;;4.53;1.73;;;;;;;;;;4972849;28;20034;-68
2023/07/14 00:21:23;;;;;;;4.15;1.77;;;;;;;;;;4991410;28;20038;-68
2023/07/14 00:23:49;;;;;;;3.55;2.20;;;;;;;;;;4991252;28;20053;-68
2023/07/14 00:26:19;;;;;;;6.03;2.20;;;;;;;;;;4991088;28;20469;-68
2023/07/14 00:28:48;;;;;;;4.45;2.45;;;;;;;;;;4990355;28;20030;-68
2023/07/14 00:31:14;;;;;;;5.03;2.47;;;;;;;;;;4990926;28;20053;-68
2023/07/14 00:33:41;;;;;;;7.00;3.40;;;;;;;;;;4991524;28;20042;-68
2023/07/14 00:36:07;;;;;;;4.53;2.75;;;;;;;;;;4990966;28;20034;-68
2023/07/14 00:38:37;;;;;;;3.70;2.63;;;;;;;;;;4990562;28;20042;-68
2023/07/14 00:41:03;;;;;;;5.30;2.63;;;;;;;;;;4989462;28;20026;-68
2023/07/14 00:43:30;;;;;;;5.30;2.88;;;;;;;;;;4991116;28;20529;-68
2023/07/14 00:45:57;;;;;;;6.72;2.33;;;;;;;;;;4990753;28;20030;-68
2023/07/14 00:48:24;;;;;;;4.03;2.40;;;;;;;;;;4990283;28;20444;-68
2023/07/14 00:51:11;;;;;;;7.32;2.60;;;;;;;;;;4976188;28;20397;-68
2023/07/14 00:53:38;;;;;;;7.30;2.67;;;;;;;;;;4994715;28;20120;-69
2023/07/14 00:56:10;;;;;;;3.08;2.20;;;;;;;;;;4994849;28;20030;-69
2023/07/14 00:58:37;;;;;;;7.05;2.63;;;;;;;;;;4993773;28;20496;-69
2023/07/14 01:01:10;;;;;;;5.95;2.15;;;;;;;;;;4994414;28;20041;-69
2023/07/14 01:03:40;;;;;;;4.20;2.55;;;;;;;;;;4994411;28;20028;-69
2023/07/14 01:06:07;;;;;;;4.80;1.98;;;;;;;;;;4994633;28;20492;-69
2023/07/14 01:08:33;;;;;;;3.95;2.30;;;;;;;;;;4993491;28;20026;-69
2023/07/14 01:10:59;;;;;;;4.85;2.58;;;;;;;;;;4994288;28;20028;-69
2023/07/14 01:13:26;;;;;;;5.68;2.70;;;;;;;;;;4994265;28;20062;-69
2023/07/14 01:15:53;;;;;;;4.13;2.20;;;;;;;;;;4993078;28;20034;-69
2023/07/14 01:18:19;;;;;;;3.65;1.90;;;;;;;;;;4993244;28;20456;-69
2023/07/14 01:20:45;;;;;;;4.80;2.83;;;;;;;;;;4994427;28;20027;-69
2023/07/14 01:23:23;;;;;;;6.57;2.47;;;;;;;;;;4993895;28;20033;-69
2023/07/14 01:25:58;;;;;;;9.88;2.10;;;;;;;;;;4994287;28;20018;-69
2023/07/14 01:28:24;;;;;;;6.50;2.50;;;;;;;;;;4993416;28;20023;-69
2023/07/14 01:30:50;;;;;;;4.35;2.25;;;;;;;;;;4976835;28;20052;-69
2023/07/14 01:33:17;;;;;;;5.45;2.53;;;;;;;;;;4994294;28;20077;-69
2023/07/14 01:35:48;;;;;;;4.47;2.30;;;;;;;;;;4993749;28;20382;-68
2023/07/14 01:38:17;;;;;;;6.30;2.22;;;;;;;;;;4993401;28;20038;-69
2023/07/14 01:40:44;;;;;;;4.13;2.22;;;;;;;;;;4993954;28;20500;-69
2023/07/14 01:43:12;;;;;;;6.45;2.10;;;;;;;;;;4993898;28;20084;-68
2023/07/14 01:45:43;;;;;;;5.28;2.30;;;;;;;;;;4993820;28;20088;-68
2023/07/14 01:48:11;;;;;;;4.50;2.05;;;;;;;;;;4993161;28;20026;-68
2023/07/14 01:50:40;;;;;;;3.72;2.40;;;;;;;;;;4993647;28;20050;-68
2023/07/14 01:53:10;;;;;;;6.55;2.70;;;;;;;;;;4994017;28;20018;-68
2023/07/14 01:55:37;;;;;;;7.53;2.10;;;;;;;;;;4993763;28;20026;-68
2023/07/14 01:58:08;;;;;;;5.00;2.25;;;;;;;;;;4992753;28;20034;-68
2023/07/14 02:00:35;;;;;;;6.40;2.53;;;;;;;;;;4990337;28;20044;-69
2023/07/14 02:03:02;;;;;;;6.47;2.47;;;;;;;;;;4992519;28;20105;-69
2023/07/14 02:05:33;;;;;;;4.82;2.17;;;;;;;;;;4993837;28;20030;-68
2023/07/14 02:08:02;;;;;;;3.72;2.28;;;;;;;;;;4992669;28;20544;-68
2023/07/14 02:10:28;;;;;;;6.50;2.40;;;;;;;;;;4993336;28;20041;-69
2023/07/14 02:12:55;;;;;;;3.30;2.15;;;;;;;;;;4993446;28;20093;-69
2023/07/14 02:15:24;;;;;;;6.22;2.17;;;;;;;;;;4993265;28;20034;-69
2023/07/14 02:17:52;;;;;;;6.72;2.50;;;;;;;;;;4992214;28;20105;-69
2023/07/14 02:20:24;;;;;;;4.47;1.95;;;;;;;;;;4993386;28;20516;-69
2023/07/14 02:22:50;;;;;;;2.90;2.10;;;;;;;;;;4993163;28;20030;-69
2023/07/14 02:25:18;;;;;;;4.97;1.85;;;;;;;;;;4993101;28;20054;-68
2023/07/14 02:27:44;;;;;;;6.05;2.97;;;;;;;;;;4990380;28;20022;-69
2023/07/14 02:30:11;;;;;;;7.35;2.30;;;;;;;;;;4975659;28;20031;-69
2023/07/14 02:32:39;;;;;;;3.38;2.13;;;;;;;;;;4992866;28;20461;-68
2023/07/14 02:35:12;;;;;;;8.48;2.20;;;;;;;;;;4992959;28;20026;-69
2023/07/14 02:38:00;;;;;;;3.67;2.58;;;;;;;;;;4991997;28;20545;-68
2023/07/14 02:40:28;;;;;;;6.78;2.30;;;;;;;;;;5018049;23;20043;-70
2023/07/14 02:42:54;;;;;;;5.13;2.00;;;;;;;;;;4992650;28;20042;-71
2023/07/14 02:45:21;;;;;;;4.05;2.33;;;;;;;;;;4993255;28;20659;-70
2023/07/14 02:47:48;;;;;;;12.07;3.10;;;;;;;;;;4991964;28;20057;-70
2023/07/14 02:50:14;;;;;;;3.90;2.17;;;;;;;;;;4992976;28;20022;-71
2023/07/14 02:52:40;;;;;;;6.82;2.30;;;;;;;;;;4992765;28;20026;-71
2023/07/14 02:55:07;;;;;;;5.30;2.83;;;;;;;;;;4992500;28;20030;-71
2023/07/14 02:57:34;;;;;;;4.63;2.78;;;;;;;;;;4990009;28;20069;-71
2023/07/14 03:00:00;;;;;;;4.13;2.85;;;;;;;;;;4992151;28;20018;-71
2023/07/14 03:02:26;;;;;;;3.00;1.85;;;;;;;;;;4992878;28;20061;-71
2023/07/14 03:04:53;;;;;;;4.38;2.10;;;;;;;;;;4992624;28;20030;-70
2023/07/14 03:07:19;;;;;;;8.88;2.28;;;;;;;;;;4991902;28;20157;-70
2023/07/14 03:09:45;;;;;;;5.03;2.70;;;;;;;;;;4992270;28;20102;-71
2023/07/14 03:12:11;;;;;;;5.05;2.55;;;;;;;;;;4992216;28;20037;-71
2023/07/14 03:14:37;;;;;;;4.88;2.90;;;;;;;;;;4992224;28;20030;-71
2023/07/14 03:17:03;;;;;;;6.22;2.97;;;;;;;;;;4991908;28;20026;-68
2023/07/14 03:19:29;;;;;;;45.10;29.20;;;;;;;;;;4990336;28;20053;-71
2023/07/14 03:21:55;;;;;;;3.75;2.20;;;;;;;;;;4985479;28;20031;-70
2023/07/14 03:24:21;;;;;;;5.80;2.75;;;;;;;;;;4977521;28;20033;-71
2023/07/14 03:26:47;;;;;;;8.93;5.18;;;;;;;;;;4992059;28;20377;-71
2023/07/14 03:29:13;;;;;;;4.32;2.60;;;;;;;;;;4991171;28;20030;-71
2023/07/14 03:31:39;;;;;;;4.70;2.63;;;;;;;;;;4992206;28;20097;-71
2023/07/14 03:34:05;;;;;;;6.57;2.60;;;;;;;;;;4992135;28;20507;-71
2023/07/14 03:36:31;;;;;;;4.35;2.15;;;;;;;;;;4991846;28;20037;-71
2023/07/14 03:39:16;;;;;;;3.63;2.15;;;;;;;;;;4991161;28;20026;-71
2023/07/14 03:41:42;;;;;;;9.65;2.08;;;;;;;;;;4991659;28;20042;-71
2023/07/14 03:44:08;;;;;;;4.97;2.35;;;;;;;;;;4991853;28;20456;-71
2023/07/14 03:46:34;;;;;;;4.50;2.35;;;;;;;;;;4973375;28;20031;-71
2023/07/14 03:49:00;;;;;;;4.18;2.10;;;;;;;;;;4971590;28;20018;-71
2023/07/14 03:51:30;;;;;;;6.50;2.17;;;;;;;;;;4972885;28;20026;-71
2023/07/14 03:53:56;;;;;;;2.75;2.03;;;;;;;;;;4972297;28;20030;-71
2023/07/14 03:56:22;;;;;;;4.97;2.47;;;;;;;;;;4972192;28;20049;-71
2023/07/14 03:58:48;;;;;;;2.88;1.98;;;;;;;;;;4971540;28;20592;-71
2023/07/14 04:01:14;;;;;;;4.82;2.70;;;;;;;;;;4972309;28;20033;-71
2023/07/14 04:03:40;;;;;;;7.03;2.30;;;;;;;;;;4987149;28;20022;-72
2023/07/14 04:06:06;;;;;;;4.43;2.22;;;;;;;;;;4991691;28;20453;-72
2023/07/14 04:08:39;;;;;;;3.72;2.35;;;;;;;;;;4991003;28;20105;-71
2023/07/14 04:11:05;;;;;;;4.75;2.58;;;;;;;;;;4991494;28;20023;-72
2023/07/14 04:13:32;;;;;;;6.30;2.88;;;;;;;;;;4992019;28;20026;-72
2023/07/14 04:15:59;;;;;;;5.30;2.20;;;;;;;;;;4991513;28;20373;-72
2023/07/14 04:18:25;;;;;;;7.18;2.33;;;;;;;;;;4991099;28;20496;-71
2023/07/14 04:20:51;;;;;;;5.30;2.20;;;;;;;;;;4991416;28;20049;-72
2023/07/14 04:23:18;;;;;;;3.53;2.33;;;;;;;;;;4991278;28;20469;-71
2023/07/14 04:25:45;;;;;;;5.68;2.95;;;;;;;;;;4993874;28;20049;-71
2023/07/14 04:28:11;;;;;;;6.28;2.88;;;;;;;;;;4994799;28;20022;-72
2023/07/14 04:30:37;;;;;;;7.85;3.13;;;;;;;;;;4995590;28;20026;-71
2023/07/14 04:33:04;;;;;;;3.85;2.40;;;;;;;;;;4995301;28;20108;-71
2023/07/14 04:35:30;;;;;;;5.43;3.00;;;;;;;;;;4995102;28;20112;-72
2023/07/14 04:37:56;;;;;;;6.80;2.92;;;;;;;;;;4994119;28;20387;-72
2023/07/14 04:40:22;;;;;;;5.15;3.03;;;;;;;;;;4995019;28;20037;-72
2023/07/14 04:42:48;;;;;;;8.13;2.92;;;;;;;;;;4994975;28;20037;-72
2023/07/14 04:45:16;;;;;;;7.10;3.30;;;;;;;;;;4995180;28;20105;-71
2023/07/14 04:47:43;;;;;;;7.45;3.45;;;;;;;;;;4994270;28;20042;-71
2023/07/14 04:50:09;;;;;;;5.65;3.58;;;;;;;;;;4995109;28;20038;-72
2023/07/14 04:52:35;;;;;;;7.30;3.58;;;;;;;;;;4993645;28;20026;-72
2023/07/14 04:55:01;;;;;;;5.63;3.13;;;;;;;;;;4988300;28;20014;-72
2023/07/14 04:57:27;;;;;;;9.65;3.85;;;;;;;;;;4995526;28;20404;-72
2023/07/14 04:59:53;;;;;;;7.97;3.45;;;;;;;;;;4994769;28;20030;-71
2023/07/14 05:02:19;;;;;;;7.47;3.65;;;;;;;;;;4994787;28;20101;-71
2023/07/14 05:05:05;;;;;;;5.50;3.58;;;;;;;;;;4994895;28;20034;-72
2023/07/14 05:07:31;;;;;;;5.63;3.00;;;;;;;;;;4993779;28;20030;-71
2023/07/14 05:09:57;;;;;;;6.30;3.47;;;;;;;;;;4994999;28;20393;-72
2023/07/14 05:12:23;;;;;;;4.53;2.88;;;;;;;;;;4994680;28;20028;-71
2023/07/14 05:14:49;;;;;;;7.50;3.38;;;;;;;;;;4994766;28;20026;-71
2023/07/14 05:17:15;;;;;;;8.35;3.67;;;;;;;;;;4994013;28;20023;-71
2023/07/14 05:19:41;;;;;;;4.50;2.65;;;;;;;;;;4994616;28;20026;-71
2023/07/14 05:22:07;;;;;;;8.45;3.50;;;;;;;;;;4994759;28;20089;-72
2023/07/14 05:24:34;;;;;;;6.35;2.63;;;;;;;;;;4994731;28;20022;-72
2023/07/14 05:27:00;;;;;;;7.43;2.25;;;;;;;;;;4994382;28;20105;-71
2023/07/14 05:29:26;;;;;;;4.90;2.20;;;;;;;;;;4994227;28;20029;-72
2023/07/14 05:31:52;;;;;;;6.40;2.53;;;;;;;;;;4994018;28;20057;-72
2023/07/14 05:34:18;;;;;;;3.95;2.20;;;;;;;;;;4993844;28;20512;-70
2023/07/14 05:36:44;;;;;;;6.90;2.28;;;;;;;;;;4993821;28;20022;-71
2023/07/14 05:39:10;;;;;;;3.72;2.05;;;;;;;;;;4992999;28;20507;-71
2023/07/14 05:41:35;;;;;;;4.78;2.33;;;29.60;37.80;;;;;;4994477;28;20195;-71
2023/07/14 05:44:03;;;;;;;6.82;2.67;;;30.20;36.80;;;;;;4993712;28;20065;-71
2023/07/14 05:46:29;;;;;;;3.35;1.80;;;;;;;;;;4993983;28;20474;-72
2023/07/14 05:48:56;;;;;;;5.00;1.98;;;;;;;;;;4991801;28;20046;-71
2023/07/14 05:51:22;;;;;;;6.25;1.90;;;;;;;;;;4992774;28;20030;-70
2023/07/14 05:53:48;;;;;;;3.20;1.75;;;;;;;;;;4976070;28;20029;-71
2023/07/14 05:56:14;;;;;;;8.55;2.05;;;;;;;;;;4993416;28;20022;-71
2023/07/14 05:58:40;;;;;;;4.32;2.22;;;;;;;;;;4992662;28;20026;-72
2023/07/14 06:01:07;;;;;;;3.97;1.85;;;;;;;;;;4993464;28;20033;-71
2023/07/14 06:03:32;;;;;;;3.00;1.95;;;34.00;29.50;;;;;;4992060;28;20484;-72
2023/07/14 06:05:58;;;;;;;3.65;1.90;;;;;;;;;;4993170;28;20050;-71
2023/07/14 06:08:24;;;;;;;4.57;2.00;;;32.70;31.70;;;;;;4993072;28;20037;-71
2023/07/14 06:10:51;;;;;;;3.55;1.92;;;;;;;;;;4993448;28;20439;-71
2023/07/14 06:13:17;;;;;;;4.25;2.05;;;31.70;33.60;;;;;;4993298;28;20022;-72
2023/07/14 06:15:48;;;;;;;4.55;2.08;;;32.30;32.10;;;;;;4993209;28;20061;-70
2023/07/14 06:18:14;;;;;;;5.03;2.03;;;;;;;;;;4992611;28;20137;-72
2023/07/14 06:20:40;;;;;;;4.28;2.05;;;29.90;35.10;;;;;;4993421;28;20033;-72
2023/07/14 06:23:05;;;;;;;6.05;2.00;;;30.40;35.20;;;;;;4993559;28;20026;-72
2023/07/14 06:25:31;;;;;;;4.45;1.77;;;31.50;33.20;;;;;;4993267;28;20026;-71
2023/07/14 06:27:57;;;;;;;4.55;1.85;;;32.20;32.60;;;;;;4992478;28;20076;-72
2023/07/14 06:30:25;;;;;;;4.88;1.80;;;;;;;;;;4992959;28;20034;-71
2023/07/14 06:32:51;;;;;;;3.85;1.65;;;;;;;;;;4993065;28;20019;-72
2023/07/14 06:35:17;;;;;;;5.05;1.65;;;;;;;;;;4993272;28;20046;-71
2023/07/14 06:37:43;;;;;;;4.45;1.75;;;;;;;;;;4992691;28;20037;-71
2023/07/14 06:40:10;;;;;;;5.97;1.60;;;;;;;;;;4993041;28;20038;-72
2023/07/14 06:42:36;;;;;;;2.90;1.80;;;35.40;27.00;;;;;;4993018;28;20026;-71
2023/07/14 06:45:03;;;;;;;4.45;1.80;;;33.90;28.70;;;;;;4992848;28;20022;-71
2023/07/14 06:47:29;;;;;;;3.78;2.03;;;;;;;;;;4991049;28;20038;-71
2023/07/14 06:49:56;;;;;;;4.05;1.70;;;33.90;29.30;;;;;;4992612;28;20035;-72
2023/07/14 06:52:22;;;;;;;4.43;2.17;;;33.40;30.00;;;;;;4992827;28;20058;-72
2023/07/14 06:54:47;;;;;;;4.63;2.22;;;33.90;29.90;;;;;;4992673;28;20625;-72
2023/07/14 06:57:13;;;;;;;7.00;2.00;;;34.80;28.30;;;;;;4990244;28;20500;-72
2023/07/14 06:59:39;;;;;;;5.93;1.77;;;34.00;28.60;;;;;;4991940;28;20473;-72
2023/07/14 07:02:05;;;;;;;2.83;1.77;;;31.70;31.90;;;;;;4990138;28;20092;-72
2023/07/14 07:04:35;;;;;;;3.08;1.85;;;31.80;31.20;;;;;;4991547;28;20469;-72
2023/07/14 07:07:00;;;;;;;5.90;2.00;;;32.00;30.40;;;;;;4992232;28;20109;-69
2023/07/14 07:09:27;;;;;;;7.13;2.15;;;33.90;29.80;;;;;;4990925;28;20110;-71
2023/07/14 07:11:53;;;;;;;4.35;1.88;;;34.20;28.00;;;;;;4992379;28;20068;-72
2023/07/14 07:14:19;;;;;;;8.23;2.13;;;32.70;29.40;;;;;;4992338;28;20026;-70
2023/07/14 07:16:44;;;;;;;6.18;1.92;;;33.00;29.40;;;;;;4992026;28;20034;-71
2023/07/14 07:19:10;;;;;;;4.22;2.00;;;;;;;;;;4991646;28;20435;-71
2023/07/14 07:21:36;;;;;;;3.10;1.73;;;33.00;29.60;;;;;;4992260;28;20034;-71
2023/07/14 07:24:06;;;;;;;5.65;2.00;;;34.20;27.90;;;;;;4991464;28;20050;-72
2023/07/14 07:26:32;;;;;;;7.00;1.70;;;;;;;;;;4991587;28;20034;-71
2023/07/14 07:28:57;;;;;;;3.97;1.92;;;31.20;30.80;;;;;;4990732;28;20033;-71
2023/07/14 07:31:23;;;;;;;4.82;1.65;;;31.10;31.80;;;;;;4991325;28;20026;-71
2023/07/14 07:33:48;;;;;;;5.45;1.60;;;31.70;29.90;;;;;;4990115;28;20026;-72
2023/07/14 07:36:15;;;;;;;2.30;1.50;;;32.40;30.10;;;;;;4991788;28;20101;-72
2023/07/14 07:38:46;;;;;;;5.82;1.40;;;34.00;27.00;;;;;;4991288;28;20030;-71
2023/07/14 07:41:16;;;;;;;4.38;1.60;;;34.70;26.80;;;;;;4991985;28;20038;-71
2023/07/14 07:43:42;;;;;;;4.15;1.65;;;;;;;;;;4991531;28;20035;-71
2023/07/14 07:46:08;;;;;;;3.30;1.80;;;37.10;24.00;;;;;;4992321;28;20022;-72
2023/07/14 07:48:36;;;;;;;3.72;1.65;;;37.10;23.40;;;;;;4991188;28;20038;-72
2023/07/14 07:51:04;;;;;;;4.38;1.50;;;37.00;22.60;;;;;;4991669;28;20050;-71
2023/07/14 07:53:31;;;;;;;2.10;1.35;;;36.90;23.60;;;;;;4991822;28;20030;-71
2023/07/14 07:55:59;;;;;;;3.40;1.58;;;37.50;23.10;;;;;;4991773;28;20027;-72
2023/07/14 07:58:25;;;;;;;3.25;1.55;;;37.80;23.40;;;;;;4990614;28;20037;-71
2023/07/14 08:01:02;;;;;;;2.00;1.40;;;38.40;22.50;;;;;;4991623;28;20026;-71
2023/07/14 08:03:29;;;;;;;7.50;1.98;;;35.10;25.10;;;;;;4977904;28;20058;-70
2023/07/14 08:06:03;;;;;;;5.00;1.90;;;32.10;28.70;;;;;;4972255;28;20035;-71
2023/07/14 08:08:29;;;;;;;5.25;1.73;;;32.70;28.70;;;;;;4971198;28;20042;-71
2023/07/14 08:10:55;;;;;;;3.83;1.67;;;;;;;;;;4971887;28;20421;-71
2023/07/14 08:13:24;;;;;;;3.50;2.03;;;31.60;29.90;;;;;;4971947;28;20023;-71
2023/07/14 08:15:53;;;;;;;6.63;1.90;;;32.90;28.80;;;;;;4971942;28;20034;-71
2023/07/14 08:18:21;;;;;;;5.22;1.60;;;33.90;26.90;;;;;;4971248;28;20110;-71
2023/07/14 08:20:48;;;;;;;2.80;1.70;;;33.80;26.60;;;;;;4971714;28;20529;-71
2023/07/14 08:23:15;;;;;;;3.80;1.88;;;34.10;27.00;;;;;;4971686;28;20107;-71
2023/07/14 08:25:41;;;;;;;3.20;1.63;;;;;;;;;;4972007;28;20399;-71
2023/07/14 08:28:07;;;;;;;6.28;1.80;;;;;;;;;;4971283;28;20650;-72
2023/07/14 08:30:33;;;;;;;3.70;1.60;;;;;;;;;;4971739;28;20031;-71
2023/07/14 08:32:59;;;;;;;4.15;1.65;;;29.50;32.70;;;;;;4972430;28;20026;-71
2023/07/14 08:35:25;;;;;;;3.60;1.77;;;30.20;31.60;;;;;;4971999;28;20402;-72
2023/07/14 08:37:50;;;;;;;4.75;1.75;;;31.70;30.10;;;;;;4971033;28;20023;-72
2023/07/14 08:40:26;;;;;;;2.85;1.75;;;32.00;28.70;;;;;;5008765;23;20413;-69
2023/07/14 08:43:11;;;;;;;2.92;1.50;;;32.10;29.20;;;;;;4992892;28;20447;-70
2023/07/14 08:45:51;;;;;;;3.38;1.73;;;33.70;28.10;;;;;;5010722;28;20064;-70
2023/07/14 08:48:24;;;;;;;;;;;35.40;26.40;;;;;;5010326;28;20049;-70
2023/07/14 08:50:54;;;;;;;5.20;2.05;;;36.40;24.80;;;;;;5010492;28;20000;-70
2023/07/14 08:53:22;;;;;;;3.45;1.73;;;;;;;;;;4993153;28;20065;-70
2023/07/14 08:55:48;;;;;;;2.08;1.35;;;;;;;;;;5010322;28;20032;-70
2023/07/14 08:58:17;;;;;;;3.90;1.95;;;;;;;;;;5009649;28;20054;-70
2023/07/14 09:01:10;;;;;;;4.18;1.73;;;37.90;22.70;;;;;;5010320;28;20058;-70
2023/07/14 09:03:46;;;;;;;3.85;1.73;;;36.90;22.60;;;;;;4998360;28;20042;-70
2023/07/14 09:06:17;;;;;;;2.90;1.75;;;34.20;25.50;;;;;;5010496;28;20391;-70
2023/07/14 09:08:44;;;;;;;3.00;1.42;;;;;;;;;;5009818;28;20114;-72
2023/07/14 09:11:16;;;;;;;4.60;1.85;;;;;;;;;;4994049;28;20452;-72
2023/07/14 09:13:52;;;;;;;4.63;1.75;;;;;;;;;;4996532;28;20022;-71
2023/07/14 09:16:20;;;;;;;4.45;2.13;;;29.60;32.60;;;;;;5013965;28;20404;-70
2023/07/14 09:19:14;;;;;;;4.22;1.60;;;30.90;30.90;;;;;;5013241;28;20018;-70
2023/07/14 09:21:52;;;;;;;3.42;2.00;;;;;;;;;;5013853;28;20068;-70
2023/07/14 09:24:44;;;;;;;3.80;1.77;;;33.80;28.30;;;;;;5013786;28;20492;-70
2023/07/14 09:27:20;;;;;;;3.00;1.30;;;34.50;26.70;;;;;;5013217;28;20029;-70
2023/07/14 09:29:46;;;;;;;2.90;1.80;;;34.10;26.80;;;;;;5013467;28;20791;-70
2023/07/14 09:32:17;;;;;;;4.30;1.73;;;;;;;;;;5013729;28;20499;-70
2023/07/14 09:34:53;;;;;;;5.57;1.52;;;32.90;28.30;;;;;;5013684;28;20120;-70
2023/07/14 09:37:35;;;;;;;2.60;1.50;;;33.40;28.30;;;;;;5013082;28;20044;-70
2023/07/14 09:40:24;;;;;;;2.80;1.35;;;33.90;27.20;;;;;;5012821;28;20045;-69
2023/07/14 09:42:52;;;;;;;4.13;1.65;;;34.40;25.90;;;;;;5012669;28;20085;-70
2023/07/14 09:45:23;;;;;;;3.47;1.38;;;32.70;27.70;;;;;;4994604;28;20026;-70
2023/07/14 09:48:01;;;;;;;4.60;1.60;;;33.50;28.40;;;;;;5011677;28;20105;-70
2023/07/14 09:50:31;;;;;;;3.33;1.17;;;34.40;27.40;;;;;;5011997;28;20038;-71
2023/07/14 09:53:02;;;;;;;2.72;1.50;;;34.60;27.70;;;;;;5012357;28;20025;-70
2023/07/14 09:55:30;;;;;;;4.55;1.65;;;34.70;25.10;;;;;;5012396;28;20018;-70
2023/07/14 09:57:56;;;;;;;1.75;1.42;;;32.60;27.30;;;;;;5011139;28;20026;-71
2023/07/14 10:00:24;;;;;;;2.35;1.27;;;32.70;27.70;;;;;;5012263;28;20028;-70
2023/07/14 10:02:51;;;;;;;3.08;1.58;;;;;;;;;;5003658;28;20042;-70
2023/07/14 10:05:34;;;;;;;3.20;1.52;;;;;;;;;;4974640;28;20031;-70
2023/07/14 10:08:00;;;;;;;3.30;1.55;;;;;;;;;;4991549;28;20054;-70
2023/07/14 10:10:26;;;;;;;2.30;1.35;;;;;;;;;;4992148;28;20028;-70
2023/07/14 10:12:53;;;;;;;2.42;1.42;;;;;;;;;;4992365;28;20058;-70
2023/07/14 10:15:35;;;;;;;3.40;1.83;;;31.60;30.50;;;;;;4992251;28;20034;-71
2023/07/14 10:18:12;;;;;;;3.17;1.60;;;31.20;29.80;;;;;;4991570;28;20026;-71
2023/07/14 10:20:39;;;;;;;5.32;1.95;;;30.20;31.40;;;;;;4992143;28;20030;-71
2023/07/14 10:23:13;;;;;;;3.83;1.85;;;30.50;31.80;;;;;;4991072;28;20170;-71
2023/07/14 10:25:39;;;;;;;5.57;1.70;;;30.70;30.50;;;;;;4991899;28;20015;-70
2023/07/14 10:28:12;;;;;;;4.60;1.50;;;30.00;31.40;;;;;;4991465;28;20032;-70
2023/07/14 10:30:54;;;;;;;2.97;1.83;;;;;;;;;;4992523;28;20029;-71
2023/07/14 10:33:46;;;;;;;3.80;1.95;;;;;;;;;;4992015;28;20030;-70
2023/07/14 10:36:25;;;;;;;5.13;1.73;;;;;;;;;;4988880;28;20093;-71
2023/07/14 10:38:54;;;;;;;5.53;1.95;;;;;;;;;;4991449;28;20125;-70
2023/07/14 10:41:21;;;;;;;2.90;1.77;;;;;;;;;;4955060;28;1079784;-70
2023/07/14 10:44:02;;;;;;;3.83;1.23;;;;;;;;;;4992714;28;20092;-70
2023/07/14 10:46:32;;;;;;;5.15;1.92;;;;;;;;;;4992615;28;20027;-70
2023/07/14 10:49:05;;;;;;;3.78;1.73;;;;;;;;;;4992212;28;20052;-70
2023/07/14 10:51:42;;;;;;;3.90;1.65;;;;;;;;;;4990637;28;20029;-70
2023/07/14 10:54:11;;;;;;;3.72;1.70;;;;;;;;;;5011991;28;20072;-70
2023/07/14 10:56:45;;;;;;;4.53;1.95;;;;;;;;;;5012024;28;20032;-70
2023/07/14 10:59:22;;;;;;;4.78;1.63;;;;;;;;;;5010000;28;20527;-71
2023/07/14 11:01:54;;;;;;;2.63;1.70;;;;;;;;;;5011852;28;20052;-70
2023/07/14 11:04:26;;;;;;;3.88;1.83;;;;;;;;;;5012521;28;20021;-70
2023/07/14 11:06:55;;;;;;;2.50;1.67;;;29.30;33.90;;;;;;5010560;28;20086;-70
2023/07/14 11:09:20;;;;;;;7.15;1.58;;;29.30;33.10;;;;;;5010078;28;20463;-70
2023/07/14 11:12:12;;;;;;;4.75;2.15;;;;;;;;;;5010902;28;20053;-72
2023/07/14 11:14:48;;;;;;;2.50;1.70;;;;;;;;;;5004877;28;20053;-70
2023/07/14 11:17:32;;;;;;;7.18;1.90;;;;;;;;;;5010892;28;20497;-70
2023/07/14 11:20:22;;;;;;;3.97;1.92;;;;;;;;;;5011666;28;20108;-71
2023/07/14 11:22:48;;;;;;;2.42;1.58;;;;;;;;;;5006255;28;20080;-71
2023/07/14 11:25:23;;;;;;;5.45;2.50;;;;;;;;;;5011681;28;20081;-69
2023/07/14 11:28:04;;;;;;;2.83;1.88;;;;;;;;;;5010954;28;20022;-70
2023/07/14 11:30:33;;;;;;;3.42;1.73;;;;;;;;;;5011073;28;20080;-70
2023/07/14 11:33:05;;;;;;;5.20;2.00;;;;;;;;;;5010459;28;20014;-70
2023/07/14 11:35:34;;;;;;;4.05;1.38;;;;;;;;;;5011716;28;20060;-70
2023/07/14 11:38:18;;;;;;;4.20;1.35;;;;;;;;;;5009422;28;20030;-71
2023/07/14 11:40:45;;;;;;;3.47;1.77;;;;;;;;;;5008632;28;20037;-70
2023/07/14 11:43:16;;;;;;;2.78;1.52;;;;;;;;;;5011246;28;20025;-70
2023/07/14 11:45:43;;;;;;;3.50;1.85;;;;;;;;;;5011170;28;20026;-70
2023/07/14 11:48:24;;;;;;;3.38;1.52;;;28.90;34.20;;;;;;5010900;28;20348;-70
2023/07/14 11:51:04;;;;;;;3.60;1.45;;;29.10;34.60;;;;;;5011040;28;20045;-70
2023/07/14 11:53:33;;;;;;;3.45;2.20;;;29.30;33.50;;;;;;5010259;28;20516;-70
2023/07/14 11:56:18;;;;;;;3.42;1.63;;;29.20;32.30;;;;;;5009851;28;20559;-70
2023/07/14 11:58:44;;;;;;;2.95;1.52;;;29.20;32.10;;;;;;5007052;28;20050;-70
2023/07/14 12:01:23;;;;;;;3.13;1.70;;;29.60;31.40;;;;;;5008266;28;20048;-71
2023/07/14 12:03:54;;;;;;;4.18;2.03;;;29.70;32.40;;;;;;5009682;28;20117;-71
2023/07/14 12:06:20;;;;;;;;;;;29.90;32.10;;;;;;5009360;28;20023;-71
2023/07/14 12:09:04;;;;;;;2.78;1.73;;;30.00;31.20;;;;;;5008730;28;19905;-71
2023/07/14 12:11:37;;;;;;;2.22;1.45;;;29.70;31.00;;;;;;4991213;28;20026;-70
2023/07/14 12:14:22;;;;;;;4.45;1.63;;;29.90;33.80;;;;;;5009457;28;20211;-71
2023/07/14 12:16:48;;;;;;;3.30;1.70;;;30.00;31.90;;;;;;5008749;28;20049;-71
2023/07/14 12:19:48;;;;;;;4.38;1.95;;;30.20;31.80;;;;;;5009668;28;20068;-71
2023/07/14 12:22:38;;;;;;;3.40;1.80;;;30.00;32.00;;;;;;4999489;28;20065;-71
2023/07/14 12:25:11;;;;;;;3.92;1.70;;;29.80;30.60;;;;;;5012083;28;20034;-72
2023/07/14 12:27:41;;;;;;;3.30;1.80;;;29.70;30.70;;;;;;5010331;28;20030;-71
2023/07/14 12:30:21;;;;;;;3.90;1.60;;;29.40;31.40;;;;;;5011435;28;20049;-70
2023/07/14 12:32:47;;;;;;;3.10;1.95;;;29.50;31.70;;;;;;5011311;28;20030;-71
2023/07/14 12:35:17;;;;;;;2.80;1.90;;;29.70;31.70;;;;;;5011117;28;20026;-70
2023/07/14 12:37:44;;;;;;;5.15;1.73;;;29.60;30.60;;;;;;4992519;28;20037;-70
2023/07/14 12:40:20;;;;;;;2.72;1.80;;;29.60;30.50;;;;;;5010967;28;20030;-70
2023/07/14 12:42:48;;;;;;;4.60;1.80;;;29.10;30.60;;;;;;5011011;28;20101;-70
2023/07/14 12:45:16;;;;;;;5.68;2.00;;;29.10;31.00;;;;;;5010924;28;20070;-70
2023/07/14 12:47:45;;;;;;;4.25;1.67;;;29.50;34.30;;;;;;5014342;28;20026;-70
2023/07/14 12:50:16;;;;;;;3.50;1.63;;;29.70;32.90;;;;;;5014675;28;20028;-70
2023/07/14 12:52:42;;;;;;;;;;;29.60;34.30;;;;;;5015188;28;20466;-70
2023/07/14 12:55:13;;;;;;;4.22;1.77;;;29.60;32.40;;;;;;5015247;28;19906;-70
2023/07/14 12:57:39;;;;;;;;;;;29.70;33.00;;;;;;5014272;28;20026;-71
2023/07/14 13:00:21;;;;;;;5.28;2.13;;;;;;;;;;5014525;28;20371;-70
2023/07/14 13:02:50;;;;;;;8.00;2.03;;;;;;;;;;5014581;28;20105;-71
2023/07/14 13:05:17;;;;;;;4.00;1.75;;;;;;;;;;5014357;28;20068;-70
2023/07/14 13:07:45;;;;;;;5.65;1.90;;;;;;;;;;5013580;28;20026;-70
2023/07/14 13:10:20;;;;;;;3.78;1.92;;;;;;;;;;5014367;28;20026;-70
2023/07/14 13:12:46;;;;;;;4.43;2.10;;;;;;;;;;5014184;28;20025;-68
2023/07/14 13:15:14;;;;;;;3.53;1.92;;;;;;;;;;4996348;28;20032;-69
2023/07/14 13:17:40;;;;;;;4.53;2.15;;;;;;;;;;5013378;28;20026;-70
2023/07/14 13:20:08;;;;;;;4.10;1.77;;;;;;;;;;5014137;28;20055;-70
2023/07/14 13:22:36;;;;;;;5.30;2.15;;;;;;;;;;5013965;28;20026;-70
2023/07/14 13:25:06;;;;;;;4.18;2.00;;;;;;;;;;5013891;28;20032;-69
2023/07/14 13:27:39;;;;;;;3.25;1.92;;;;;;;;;;4995430;28;20151;-70
2023/07/14 13:30:24;;;;;;;4.25;1.80;;;;;;;;;;5013983;28;20077;-70
2023/07/14 13:32:51;;;;;;;2.60;1.58;;;;;;;;;;5013748;28;20110;-70
2023/07/14 13:35:20;;;;;;;5.03;2.40;;;;;;;;;;5013888;28;20034;-70
2023/07/14 13:37:46;;;;;;;4.60;2.15;;;;;;;;;;5013014;28;20032;-70
2023/07/14 13:40:18;;;;;;;5.47;2.20;;;;;;;;;;5013465;28;20121;-69
2023/07/14 13:42:49;;;;;;;3.97;1.90;;;;;;;;;;5013599;28;20530;-70
2023/07/14 13:45:19;;;;;;;7.28;1.88;;;;;;;;;;5013528;28;20109;-69
2023/07/14 13:47:50;;;;;;;4.43;2.15;;;;;;;;;;5012762;28;20463;-70
2023/07/14 13:50:15;;;;;;;4.22;2.00;;;;;;;;;;5013391;28;20044;-69
2023/07/14 13:52:41;;;;;;;2.63;1.80;;;;;;;;;;5013278;28;20548;-70
2023/07/14 13:55:12;;;;;;;5.32;2.20;;;;;;;;;;5013242;28;20030;-70
2023/07/14 13:57:41;;;;;;;3.72;1.85;;;;;;;;;;5012537;28;20029;-69
2023/07/14 14:00:08;;;;;;;5.45;2.13;;;;;;;;;;5013184;28;20037;-69
2023/07/14 14:02:34;;;;;;;4.30;2.33;;;;;;;;;;5013241;28;20092;-70
2023/07/14 14:05:00;;;;;;;5.97;2.40;;;;;;;;;;5012867;28;20022;-70
2023/07/14 14:07:26;;;;;;;3.25;2.03;;;;;;;;;;5012421;28;20030;-70
2023/07/14 14:09:52;;;;;;;8.95;5.15;;;;;;;;;;5012937;28;20017;-70
2023/07/14 14:12:18;;;;;;;4.45;2.60;;;;;;;;;;5013029;28;20455;-70
2023/07/14 14:14:46;;;;;;;5.00;2.63;;;;;;;;;;5012920;28;20053;-70
2023/07/14 14:17:24;;;;;;;3.78;2.05;;;;;;;;;;5011988;28;20029;-70